Tonic Sea — D5AZ8 — position and weather

sailwx.info

Track history (hours):
 
Tides and Currents Weather Stations Pressure Air Temp Water Temp Dewpoint Dewpoint Depression Visibility Wind Speed Wind Dir Waves Ship Positions

Tonic Sea

Last reported at 2015-Mar-27 21:28 UTC. Time now 2015-Mar-27 22:12 UTC.
Position N 52°38' E 002°42'.

Length 229 m; draft 15 m.

Type: Cargo ship. MMSI: 636015479.

Date/timePositionNaut miles runAvg speedWind from/ knotsBaromVisibWave heightAir tempDewpointWater temp
2015-Mar-27 21:28N 52°38' E 002°42'3812.8
2015-Mar-27 18:30N 52°01' E 002°42'2211.2
2015-Mar-27 16:31N 51°40' E 002°29'1211.2
2015-Mar-27 15:24N 51°30' E 002°16'810.0
2015-Mar-27 14:33N 51°23' E 002°10'10 9.7
2015-Mar-27 13:33N 51°14' E 002°05'9 9.2
2015-Mar-27 12:33N 51°09' E 001°51'9 8.6
2015-Mar-27 11:33N 51°04' E 001°41'10 9.0
2015-Mar-27 10:26N 50°57' E 001°29'9 9.6
2015-Mar-27 09:31N 50°49' E 001°24'2410.1
2015-Mar-27 07:11N 50°31' E 001°00'1110.8
2015-Mar-27 06:12N 50°27' E 000°44'711.0
2015-Mar-27 05:32N 50°25' E 000°34'  
2015-Mar-21 23:29N 40°24' W 026°27'9 9.9
2015-Mar-21 22:33N 40°19' W 026°37'10 9.8
2015-Mar-21 21:33N 40°13' W 026°47'1010.0
2015-Mar-21 20:33N 40°08' W 026°58'1010.1
2015-Mar-21 19:33N 40°02' W 027°09'1110.1
2015-Mar-21 18:29N 39°55' W 027°20'1010.3
2015-Mar-21 17:33N 39°50' W 027°30'1110.7
2015-Mar-21 16:33N 39°43' W 027°41'1110.6
2015-Mar-21 15:33N 39°37' W 027°53'1110.9
2015-Mar-21 14:33N 39°31' W 028°04'1111.2
2015-Mar-21 13:33N 39°24' W 028°15'1111.0
2015-Mar-21 12:33N 39°17' W 028°26'1111.2
2015-Mar-21 11:34N 39°10' W 028°38'1110.6
2015-Mar-21 10:33N 39°03' W 028°49'1110.6
2015-Mar-21 09:33N 38°57' W 028°59'1110.7
2015-Mar-21 08:33N 38°50' W 029°10'1110.6
2015-Mar-21 07:33N 38°44' W 029°21'1110.5
2015-Mar-21 06:33N 38°37' W 029°31'1110.7
2015-Mar-21 05:33N 38°30' W 029°42'1110.9
2015-Mar-21 04:34N 38°24' W 029°53'1110.5
2015-Mar-21 03:33N 38°17' W 030°03'  
Track history (hours):
 
Tides and Currents Weather Stations Pressure Air Temp Water Temp Dewpoint Dewpoint Depression Visibility Wind Speed Wind Dir Waves Ship Positions

Tonic Sea

Last reported at 2015-Mar-27 21:28 UTC. Time now 2015-Mar-27 22:12 UTC.
Position N 52°38' E 002°42'.

Length 229 m; draft 15 m.

Type: Cargo ship. MMSI: 636015479.

Date/timePositionNaut miles runAvg speedWind from/ knotsBaromVisibWave heightAir tempDewpointWater temp
2015-Mar-27 21:28N 52°38' E 002°42'3812.8
2015-Mar-27 18:30N 52°01' E 002°42'2211.2
2015-Mar-27 16:31N 51°40' E 002°29'1211.2
2015-Mar-27 15:24N 51°30' E 002°16'810.0
2015-Mar-27 14:33N 51°23' E 002°10'10 9.7
2015-Mar-27 13:33N 51°14' E 002°05'9 9.2
2015-Mar-27 12:33N 51°09' E 001°51'9 8.6
2015-Mar-27 11:33N 51°04' E 001°41'10 9.0
2015-Mar-27 10:26N 50°57' E 001°29'9 9.6
2015-Mar-27 09:31N 50°49' E 001°24'2410.1
2015-Mar-27 07:11N 50°31' E 001°00'1110.8
2015-Mar-27 06:12N 50°27' E 000°44'711.0
2015-Mar-27 05:32N 50°25' E 000°34'  
2015-Mar-21 23:29N 40°24' W 026°27'9 9.9
2015-Mar-21 22:33N 40°19' W 026°37'10 9.8
2015-Mar-21 21:33N 40°13' W 026°47'1010.0
2015-Mar-21 20:33N 40°08' W 026°58'1010.1
2015-Mar-21 19:33N 40°02' W 027°09'1110.1
2015-Mar-21 18:29N 39°55' W 027°20'1010.3
2015-Mar-21 17:33N 39°50' W 027°30'1110.7
2015-Mar-21 16:33N 39°43' W 027°41'1110.6
2015-Mar-21 15:33N 39°37' W 027°53'1110.9
2015-Mar-21 14:33N 39°31' W 028°04'1111.2
2015-Mar-21 13:33N 39°24' W 028°15'1111.0
2015-Mar-21 12:33N 39°17' W 028°26'1111.2
2015-Mar-21 11:34N 39°10' W 028°38'1110.6
2015-Mar-21 10:33N 39°03' W 028°49'1110.6
2015-Mar-21 09:33N 38°57' W 028°59'1110.7
2015-Mar-21 08:33N 38°50' W 029°10'1110.6
2015-Mar-21 07:33N 38°44' W 029°21'1110.5
2015-Mar-21 06:33N 38°37' W 029°31'1110.7
2015-Mar-21 05:33N 38°30' W 029°42'1110.9
2015-Mar-21 04:34N 38°24' W 029°53'1110.5
2015-Mar-21 03:33N 38°17' W 030°03'  

Dump ship's entire track history